Time;durP1;ratioP1;P1;durP2;ratioP2;P2;SDS_P1;SDS_P2;PMS_P1;PMS_P2;Temp;Humidity;BMP_temperature;BMP_pressure;BME280_temperature;BME280_humidity;BME280_pressure;Samples;Min_cycle;Max_cycle;Signal;HPM_P1;HPM_P2
2023/12/18 00:00:07;;;;;;;;;;;;;;;;;;2213289;58;2622;-18
2023/12/18 00:02:38;;;;;;;;;;;;;;;;;;2215010;59;2229;-18
2023/12/18 00:05:08;;;;;;;;;;;;;;;;;;2216378;66;2246;-19
2023/12/18 00:07:38;;;;;;;;;;;;;;;;;;2210465;59;2403;-18
2023/12/18 00:10:09;;;;;;;;;;;;;;;;;;2216303;58;1882;-19
2023/12/18 00:12:39;;;;;;;;;;;;;;;;;;2214936;58;2452;-19
2023/12/18 00:15:09;;;;;;;;;;;;;;;;;;2213265;59;2235;-19
2023/12/18 00:17:39;;;;;;;;;;;;;;;;;;2216286;66;2037;-19
2023/12/18 00:20:10;;;;;;;;;;;;;;;;;;2216424;58;2414;-18
2023/12/18 00:22:40;;;;;;;;;;;;;;;;;;2211963;66;1993;-19
2023/12/18 00:25:10;;;;;;;;;;;;;;;;;;2216375;66;2206;-19
2023/12/18 00:27:41;;;;;;;;;;;;;;;;;;2215832;66;2008;-19
2023/12/18 00:30:11;;;;;;;;;;;;;;;;;;2216928;66;1820;-18
2023/12/18 00:32:42;;;;;;;;;;;;;;;;;;2215952;58;2110;-19
2023/12/18 00:35:12;;;;;;;;;;;;;;;;;;2217504;66;2632;-19
2023/12/18 00:37:42;;;;;;;;;;;;;;;;;;2210529;59;2817;-18
2023/12/18 00:40:12;;;;;;;;;;;;;;;;;;2217272;59;1936;-19
2023/12/18 00:42:43;;;;;;;;;;;;;;;;;;2212898;59;2016;-19
2023/12/18 00:45:16;;;;;;;;;;;;;;;;;;2217539;59;2292;-19
2023/12/18 00:47:46;;;;;;;;;;;;;;;;;;2212776;66;2244;-19
2023/12/18 00:50:16;;;;;;;;;;;;;;;;;;2211054;59;1698;-19
2023/12/18 00:52:47;;;;;;;;;;;;;;;;;;2217368;66;2077;-18
2023/12/18 00:55:17;;;;;;;;;;;;;;;;;;2217573;58;2599;-18
2023/12/18 00:57:47;;;;;;;;;;;;;;;;;;2216591;66;2521;-19
2023/12/18 01:00:18;;;;;;;;;;;;;;;;;;2210981;66;2707;-18
2023/12/18 01:02:49;;;;;;;;;;;;;;;;;;2213155;59;1989;-18
2023/12/18 01:05:19;;;;;;;;;;;;;;;;;;2216233;66;1637;-18
2023/12/18 01:07:49;;;;;;;;;;;;;;;;;;2215675;58;2352;-19
2023/12/18 01:10:19;;;;;;;;;;;;;;;;;;2215835;59;2365;-19
2023/12/18 01:12:50;;;;;;;;;;;;;;;;;;2214044;59;1729;-19
2023/12/18 01:15:20;;;;;;;;;;;;;;;;;;2216267;59;2155;-18
2023/12/18 01:17:50;;;;;;;;;;;;;;;;;;2216013;59;1746;-18
2023/12/18 01:20:46;;;;;;;;;;;;;;;;;;2219113;53;2558;-79
2023/12/18 01:23:30;;;;;;;;;;;;;;;;;;2213990;67;2330;-80
2023/12/18 01:26:19;;;;;;;;;;;;;;;;;;2211599;59;2552;-80
2023/12/18 01:28:52;;;;;;;;;;;;;;;;;;2211428;59;2174;-79
2023/12/18 01:31:23;;;;;;;;;;;;;;;;;;2210195;59;1217;-80
2023/12/18 01:34:11;;;;;;;;;;;;;;;;;;2212504;59;2307;-80
2023/12/18 01:36:53;;;;;;;;;;;;;;;;;;2212905;67;1045;-80
2023/12/18 01:39:27;;;;;;;;;;;;;;;;;;2207688;59;1967;-80
2023/12/18 01:42:00;;;;;;;;;;;;;;;;;;2209959;59;1375;-80
2023/12/18 01:44:34;;;;;;;;;;;;;;;;;;2209276;67;1196;-80
2023/12/18 01:47:08;;;;;;;;;;;;;;;;;;2208906;59;1355;-80
2023/12/18 01:49:50;;;;;;;;;;;;;;;;;;2210847;67;1207;-79
2023/12/18 01:52:29;;;;;;;;;;;;;;;;;;2208790;67;1257;-80
2023/12/18 01:55:00;;;;;;;;;;;;;;;;;;2209730;59;1380;-80
2023/12/18 01:57:39;;;;;;;;;;;;;;;;;;2211622;67;1188;-80
2023/12/18 02:00:15;;;;;;;;;;;;;;;;;;2210011;67;1938;-80
2023/12/18 02:02:52;;;;;;;;;;;;;;;;;;2203942;59;2343;-81
2023/12/18 02:05:23;;;;;;;;;;;;;;;;;;2213096;59;1175;-80
2023/12/18 02:07:54;;;;;;;;;;;;;;;;;;2216101;59;1288;-79
2023/12/18 02:10:25;;;;;;;;;;;;;;;;;;2213700;59;2335;-79
2023/12/18 02:12:55;;;;;;;;;;;;;;;;;;2205912;59;2196;-80
2023/12/18 02:15:28;;;;;;;;;;;;;;;;;;2210468;59;2374;-80
2023/12/18 02:18:09;;;;;;;;;;;;;;;;;;2206837;59;1140;-80
2023/12/18 02:20:48;;;;;;;;;;;;;;;;;;2207401;59;2392;-80
2023/12/18 02:23:24;;;;;;;;;;;;;;;;;;2207078;59;1578;-79
2023/12/18 02:26:28;;;;;;;;;;;;;;;;;;2206355;59;2461;-79
2023/12/18 02:29:20;;;;;;;;;;;;;;;;;;2207276;59;1523;-80
2023/12/18 02:32:03;;;;;;;;;;;;;;;;;;2206582;59;2012;-80
2023/12/18 02:34:41;;;;;;;;;;;;;;;;;;2210697;59;2402;-79
2023/12/18 02:37:30;;;;;;;;;;;;;;;;;;2207066;59;1085;-80
2023/12/18 02:40:03;;;;;;;;;;;;;;;;;;2206704;59;1925;-80
2023/12/18 02:42:34;;;;;;;;;;;;;;;;;;2208031;59;1043;-80
2023/12/18 02:45:04;;;;;;;;;;;;;;;;;;2206053;59;2116;-80
2023/12/18 02:47:35;;;;;;;;;;;;;;;;;;2210843;59;2657;-80
2023/12/18 02:50:16;;;;;;;;;;;;;;;;;;2205656;59;2325;-80
2023/12/18 02:52:51;;;;;;;;;;;;;;;;;;2206712;59;1581;-79
2023/12/18 02:55:27;;;;;;;;;;;;;;;;;;2204363;59;1398;-80
2023/12/18 02:58:08;;;;;;;;;;;;;;;;;;2206248;59;1750;-80
2023/12/18 03:00:51;;;;;;;;;;;;;;;;;;2206200;59;1945;-79
2023/12/18 03:03:28;;;;;;;;;;;;;;;;;;2210424;59;2386;-79
2023/12/18 03:05:59;;;;;;;;;;;;;;;;;;2210033;59;2359;-79
2023/12/18 03:08:38;;;;;;;;;;;;;;;;;;2210776;59;1350;-79
2023/12/18 03:11:09;;;;;;;;;;;;;;;;;;2207056;59;2190;-79
2023/12/18 03:13:43;;;;;;;;;;;;;;;;;;2204105;59;2766;-80
2023/12/18 03:16:20;;;;;;;;;;;;;;;;;;2205037;59;1689;-80
2023/12/18 03:18:54;;;;;;;;;;;;;;;;;;2204662;67;1963;-80
2023/12/18 03:21:25;;;;;;;;;;;;;;;;;;2203535;59;1625;-79
2023/12/18 03:24:01;;;;;;;;;;;;;;;;;;2203595;67;1487;-80
2023/12/18 03:26:31;;;;;;;;;;;;;;;;;;2210196;67;1386;-79
2023/12/18 03:29:05;;;;;;;;;;;;;;;;;;2206000;67;1270;-80
2023/12/18 03:31:38;;;;;;;;;;;;;;;;;;2207786;59;1494;-80
2023/12/18 03:34:09;;;;;;;;;;;;;;;;;;2204771;59;2114;-80
2023/12/18 03:36:39;;;;;;;;;;;;;;;;;;2207068;67;1393;-80
2023/12/18 03:39:13;;;;;;;;;;;;;;;;;;2207037;59;1930;-80
2023/12/18 03:41:52;;;;;;;;;;;;;;;;;;2209137;59;2053;-79
2023/12/18 03:44:27;;;;;;;;;;;;;;;;;;2207138;59;1566;-81
2023/12/18 03:47:02;;;;;;;;;;;;;;;;;;2209341;59;1225;-80
2023/12/18 03:50:06;;;;;;;;;;;;;;;;;;2207260;67;1600;-80
2023/12/18 03:52:44;;;;;;;;;;;;;;;;;;2205363;67;1196;-79
2023/12/18 03:55:14;;;;;;;;;;;;;;;;;;2207098;59;2205;-80
2023/12/18 03:57:45;;;;;;;;;;;;;;;;;;2209053;67;1251;-80
2023/12/18 04:00:18;;;;;;;;;;;;;;;;;;2209132;67;1908;-80
2023/12/18 04:02:52;;;;;;;;;;;;;;;;;;2207357;59;1483;-80
2023/12/18 04:05:35;;;;;;;;;;;;;;;;;;2207494;67;1103;-80
2023/12/18 04:08:47;;;;;;;;;;;;;;;;;;2207811;59;1238;-80
2023/12/18 04:11:29;;;;;;;;;;;;;;;;;;2211737;59;1255;-80
2023/12/18 04:13:59;;;;;;;;;;;;;;;;;;2211469;59;1302;-80
2023/12/18 04:16:31;;;;;;;;;;;;;;;;;;2212768;59;2360;-80
2023/12/18 04:19:39;;;;;;;;;;;;;;;;;;;;;
2023/12/18 04:22:28;;;;;;;;;;;;;;;;;;2213046;59;1205;-80
2023/12/18 04:25:00;;;;;;;;;;;;;;;;;;2206740;59;1563;-80
2023/12/18 04:27:32;;;;;;;;;;;;;;;;;;2213930;53;1609;-84
2023/12/18 04:30:02;;;;;;;;;;;;;;;;;;2212095;59;2307;-80
2023/12/18 04:32:33;;;;;;;;;;;;;;;;;;2207062;59;2115;-80
2023/12/18 04:35:03;;;;;;;;;;;;;;;;;;2208255;59;2258;-79
2023/12/18 04:37:37;;;;;;;;;;;;;;;;;;2212362;59;1876;-80
2023/12/18 04:40:08;;;;;;;;;;;;;;;;;;2207333;59;2022;-80
2023/12/18 04:42:38;;;;;;;;;;;;;;;;;;2212064;59;1501;-80
2023/12/18 04:45:14;;;;;;;;;;;;;;;;;;2208591;59;2293;-79
2023/12/18 04:48:26;;;;;;;;;;;;;;;;;;2211504;59;2438;-80
2023/12/18 04:50:56;;;;;;;;;;;;;;;;;;2211076;59;1627;-79
2023/12/18 04:53:26;;;;;;;;;;;;;;;;;;2207932;59;2134;-80
2023/12/18 04:56:00;;;;;;;;;;;;;;;;;;2203677;59;2242;-80
2023/12/18 04:58:31;;;;;;;;;;;;;;;;;;2210826;59;1997;-80
2023/12/18 05:01:02;;;;;;;;;;;;;;;;;;2204486;59;1686;-80
2023/12/18 05:03:37;;;;;;;;;;;;;;;;;;2206530;60;2105;-79
2023/12/18 05:06:19;;;;;;;;;;;;;;;;;;2210663;59;1828;-80
2023/12/18 05:08:58;;;;;;;;;;;;;;;;;;2207536;59;2099;-80
2023/12/18 05:11:36;;;;;;;;;;;;;;;;;;2208317;59;2120;-80
2023/12/18 05:14:16;;;;;;;;;;;;;;;;;;2207246;60;1919;-79
2023/12/18 05:16:46;;;;;;;;;;;;;;;;;;2207906;59;1961;-79
2023/12/18 05:19:19;;;;;;;;;;;;;;;;;;2210355;59;1975;-80
2023/12/18 05:21:49;;;;;;;;;;;;;;;;;;2210473;59;1528;-80
2023/12/18 05:24:19;;;;;;;;;;;;;;;;;;2207344;67;2186;-80
2023/12/18 05:26:50;;;;;;;;;;;;;;;;;;2210625;59;1675;-80
2023/12/18 05:29:20;;;;;;;;;;;;;;;;;;2208366;59;1881;-80
2023/12/18 05:31:51;;;;;;;;;;;;;;;;;;2211235;59;2116;-80
2023/12/18 05:34:21;;;;;;;;;;;;;;;;;;2210844;59;1754;-80
2023/12/18 05:36:54;;;;;;;;;;;;;;;;;;2206887;59;1891;-79
2023/12/18 05:39:27;;;;;;;;;;;;;;;;;;2207374;59;2000;-80
2023/12/18 05:41:58;;;;;;;;;;;;;;;;;;2209850;59;1688;-80
2023/12/18 05:44:28;;;;;;;;;;;;;;;;;;2203678;59;1984;-80
2023/12/18 05:46:59;;;;;;;;;;;;;;;;;;2211187;59;2298;-80
2023/12/18 05:49:29;;;;;;;;;;;;;;;;;;2210667;59;2124;-79
2023/12/18 05:52:00;;;;;;;;;;;;;;;;;;2210106;59;1754;-80
2023/12/18 05:54:30;;;;;;;;;;;;;;;;;;2210616;59;1949;-80
2023/12/18 05:57:00;;;;;;;;;;;;;;;;;;2210080;59;2246;-80
2023/12/18 05:59:31;;;;;;;;;;;;;;;;;;2206903;59;1925;-79
2023/12/18 06:02:01;;;;;;;;;;;;;;;;;;2209804;59;1918;-80
2023/12/18 06:04:32;;;;;;;;;;;;;;;;;;2211702;59;2272;-80
2023/12/18 06:07:02;;;;;;;;;;;;;;;;;;2206899;59;3126;-79
2023/12/18 06:09:32;;;;;;;;;;;;;;;;;;2204797;59;1707;-80
2023/12/18 06:12:03;;;;;;;;;;;;;;;;;;2211039;59;1857;-80
2023/12/18 06:14:35;;;;;;;;;;;;;;;;;;2210702;59;1738;-80
2023/12/18 06:17:06;;;;;;;;;;;;;;;;;;2206038;59;2494;-80
2023/12/18 06:19:40;;;;;;;;;;;;;;;;;;2207775;59;1925;-80
2023/12/18 06:22:13;;;;;;;;;;;;;;;;;;2210479;59;1932;-82
2023/12/18 06:24:43;;;;;;;;;;;;;;;;;;2211251;59;2180;-79
2023/12/18 06:27:13;;;;;;;;;;;;;;;;;;2207314;67;2425;-79
2023/12/18 06:29:45;;;;;;;;;;;;;;;;;;2212690;59;2074;-79
2023/12/18 06:32:15;;;;;;;;;;;;;;;;;;2214700;59;2123;-80
2023/12/18 06:34:46;;;;;;;;;;;;;;;;;;2208205;67;1908;-79
2023/12/18 06:37:16;;;;;;;;;;;;;;;;;;2206385;67;1876;-81
2023/12/18 06:39:47;;;;;;;;;;;;;;;;;;2211843;59;2180;-79
2023/12/18 06:42:17;;;;;;;;;;;;;;;;;;2209116;59;2017;-79
2023/12/18 06:44:47;;;;;;;;;;;;;;;;;;2205722;59;1821;-80
2023/12/18 06:47:21;;;;;;;;;;;;;;;;;;2207990;59;2001;-79
2023/12/18 06:49:52;;;;;;;;;;;;;;;;;;2211606;59;1697;-80
2023/12/18 06:52:23;;;;;;;;;;;;;;;;;;2211219;59;2036;-80
2023/12/18 06:54:54;;;;;;;;;;;;;;;;;;2211340;59;2370;-79
2023/12/18 06:57:28;;;;;;;;;;;;;;;;;;2212038;59;1943;-80
2023/12/18 06:59:58;;;;;;;;;;;;;;;;;;2209839;59;2262;-80
2023/12/18 07:02:31;;;;;;;;;;;;;;;;;;2210602;59;1515;-80
2023/12/18 07:05:09;;;;;;;;;;;;;;;;;;2209636;59;2954;-79
2023/12/18 07:07:45;;;;;;;;;;;;;;;;;;2210680;59;2536;-79
2023/12/18 07:10:15;;;;;;;;;;;;;;;;;;2209506;59;1661;-80
2023/12/18 07:12:49;;;;;;;;;;;;;;;;;;2209619;59;1834;-80
2023/12/18 07:15:23;;;;;;;;;;;;;;;;;;2207851;59;1750;-79
2023/12/18 07:17:54;;;;;;;;;;;;;;;;;;2209267;59;2060;-79
2023/12/18 07:20:33;;;;;;;;;;;;;;;;;;2210431;67;1991;-79
2023/12/18 07:23:04;;;;;;;;;;;;;;;;;;2207454;59;2348;-79
2023/12/18 07:25:34;;;;;;;;;;;;;;;;;;2206597;59;2740;-79
2023/12/18 07:28:11;;;;;;;;;;;;;;;;;;2207933;59;1813;-80
2023/12/18 07:30:44;;;;;;;;;;;;;;;;;;2207978;59;2523;-80
2023/12/18 07:33:14;;;;;;;;;;;;;;;;;;2206973;59;1947;-79
2023/12/18 07:35:48;;;;;;;;;;;;;;;;;;2211338;60;1755;-79
2023/12/18 07:38:18;;;;;;;;;;;;;;;;;;2206046;59;1642;-79
2023/12/18 07:40:48;;;;;;;;;;;;;;;;;;2203682;59;2000;-79
2023/12/18 07:43:19;;;;;;;;;;;;;;;;;;2210598;59;2373;-80
2023/12/18 07:45:50;;;;;;;;;;;;;;;;;;2207498;67;1999;-79
2023/12/18 07:48:27;;;;;;;;;;;;;;;;;;2205723;59;1521;-80
2023/12/18 07:51:00;;;;;;;;;;;;;;;;;;2210104;59;2141;-79
2023/12/18 07:53:30;;;;;;;;;;;;;;;;;;2207070;59;2681;-79
2023/12/18 07:56:01;;;;;;;;;;;;;;;;;;2205486;59;1885;-79
2023/12/18 07:58:31;;;;;;;;;;;;;;;;;;2207147;59;1976;-80
2023/12/18 08:01:03;;;;;;;;;;;;;;;;;;2209822;59;1987;-80
2023/12/18 08:03:34;;;;;;;;;;;;;;;;;;2206297;67;1772;-80
2023/12/18 08:06:04;;;;;;;;;;;;;;;;;;2206036;59;2342;-80
2023/12/18 08:08:35;;;;;;;;;;;;;;;;;;2206572;59;1645;-79
2023/12/18 08:11:05;;;;;;;;;;;;;;;;;;2211380;59;1845;-79
2023/12/18 08:13:41;;;;;;;;;;;;;;;;;;2211639;59;2113;-80
2023/12/18 08:16:11;;;;;;;;;;;;;;;;;;2207564;59;2178;-80
2023/12/18 08:18:42;;;;;;;;;;;;;;;;;;2212129;59;2531;-80
2023/12/18 08:21:26;;;;;;;;;;;;;;;;;;2209587;59;2534;-84
2023/12/18 08:24:18;;;;;;;;;;;;;;;;;;2219931;59;1921;-86
2023/12/18 08:26:57;;;;;;;;;;;;;;;;;;2220524;59;2541;-82
2023/12/18 08:29:29;;;;;;;;;;;;;;;;;;2207550;59;2442;-80
2023/12/18 08:31:59;;;;;;;;;;;;;;;;;;2211264;59;2161;-80
2023/12/18 08:34:30;;;;;;;;;;;;;;;;;;2205213;59;1874;-79
2023/12/18 08:37:06;;;;;;;;;;;;;;;;;;2211148;59;1976;-80
2023/12/18 08:39:36;;;;;;;;;;;;;;;;;;2211049;59;2102;-82
2023/12/18 08:42:09;;;;;;;;;;;;;;;;;;2210499;59;2043;-80
2023/12/18 08:44:40;;;;;;;;;;;;;;;;;;2211302;59;1691;-81
2023/12/18 08:47:12;;;;;;;;;;;;;;;;;;2204119;67;2643;-79
2023/12/18 08:49:46;;;;;;;;;;;;;;;;;;2212374;67;1782;-79
2023/12/18 08:52:16;;;;;;;;;;;;;;;;;;2203322;59;1935;-78
2023/12/18 08:54:46;;;;;;;;;;;;;;;;;;2207432;59;1978;-79
2023/12/18 08:57:20;;;;;;;;;;;;;;;;;;2207398;59;1976;-79
2023/12/18 08:59:54;;;;;;;;;;;;;;;;;;2206872;59;1940;-79
2023/12/18 09:02:25;;;;;;;;;;;;;;;;;;2206790;59;2529;-79
2023/12/18 09:05:15;;;;;;;;;;;;;;;;;;2208483;59;1788;-80
2023/12/18 09:07:45;;;;;;;;;;;;;;;;;;2206796;59;2559;-80
2023/12/18 09:10:22;;;;;;;;;;;;;;;;;;2208675;59;1826;-80
2023/12/18 09:13:17;;;;;;;;;;;;;;;;;;2208000;59;1905;-79
2023/12/18 09:15:48;;;;;;;;;;;;;;;;;;2205746;59;2511;-79
2023/12/18 09:18:18;;;;;;;;;;;;;;;;;;2209503;59;2263;-79
2023/12/18 09:20:48;;;;;;;;;;;;;;;;;;2205928;59;1948;-79
2023/12/18 09:23:19;;;;;;;;;;;;;;;;;;2209564;59;2199;-79
2023/12/18 09:26:04;;;;;;;;;;;;;;;;;;2212596;59;1524;-80
2023/12/18 09:28:38;;;;;;;;;;;;;;;;;;2209026;59;1838;-81
2023/12/18 09:31:27;;;;;;;;;;;;;;;;;;2211722;59;2250;-80
2023/12/18 09:33:57;;;;;;;;;;;;;;;;;;2208280;59;2449;-80
2023/12/18 09:36:36;;;;;;;;;;;;;;;;;;2212166;59;2311;-79
2023/12/18 09:39:07;;;;;;;;;;;;;;;;;;2209055;59;2433;-79
2023/12/18 09:41:40;;;;;;;;;;;;;;;;;;2212081;59;1798;-79
2023/12/18 09:44:10;;;;;;;;;;;;;;;;;;2205106;59;1837;-80
2023/12/18 09:47:01;;;;;;;;;;;;;;;;;;2208269;67;1925;-81
2023/12/18 09:49:52;;;;;;;;;;;;;;;;;;2205266;59;2670;-79
2023/12/18 09:52:24;;;;;;;;;;;;;;;;;;2208759;59;2168;-79
2023/12/18 09:55:04;;;;;;;;;;;;;;;;;;2209969;59;2318;-79
2023/12/18 09:57:35;;;;;;;;;;;;;;;;;;2208647;59;2056;-80
2023/12/18 10:00:06;;;;;;;;;;;;;;;;;;2205450;67;1932;-79
2023/12/18 10:02:41;;;;;;;;;;;;;;;;;;2210085;67;2000;-80
2023/12/18 10:05:12;;;;;;;;;;;;;;;;;;2206166;59;1832;-79
2023/12/18 10:07:42;;;;;;;;;;;;;;;;;;2210016;59;2361;-81
2023/12/18 10:10:12;;;;;;;;;;;;;;;;;;2206058;59;2020;-81
2023/12/18 10:12:43;;;;;;;;;;;;;;;;;;2211733;59;2007;-81
2023/12/18 10:15:18;;;;;;;;;;;;;;;;;;2209649;59;2421;-80
2023/12/18 10:18:11;;;;;;;;;;;;;;;;;;2210612;59;1712;-80
2023/12/18 10:20:52;;;;;;;;;;;;;;;;;;2210207;59;2160;-80
2023/12/18 10:23:23;;;;;;;;;;;;;;;;;;2210060;67;1927;-79
2023/12/18 10:25:53;;;;;;;;;;;;;;;;;;2211128;59;2139;-80
2023/12/18 10:28:31;;;;;;;;;;;;;;;;;;2206273;59;1886;-83
2023/12/18 10:31:04;;;;;;;;;;;;;;;;;;2207944;59;2678;-81
2023/12/18 10:33:34;;;;;;;;;;;;;;;;;;2207573;59;1834;-81
2023/12/18 10:36:11;;;;;;;;;;;;;;;;;;2209158;59;2525;-81
2023/12/18 10:38:59;;;;;;;;;;;;;;;;;;2211128;59;1905;-80
2023/12/18 10:41:35;;;;;;;;;;;;;;;;;;2210159;59;1682;-80
2023/12/18 10:44:07;;;;;;;;;;;;;;;;;;2208380;59;2417;-80
2023/12/18 10:46:38;;;;;;;;;;;;;;;;;;2211888;59;2053;-80
2023/12/18 10:49:09;;;;;;;;;;;;;;;;;;2208345;59;2379;-78
2023/12/18 10:51:40;;;;;;;;;;;;;;;;;;2205697;59;2186;-80
2023/12/18 10:54:19;;;;;;;;;;;;;;;;;;2206565;59;1756;-80
2023/12/18 10:56:53;;;;;;;;;;;;;;;;;;2205806;59;2747;-80
2023/12/18 10:59:23;;;;;;;;;;;;;;;;;;2209067;59;2547;-80
2023/12/18 11:01:57;;;;;;;;;;;;;;;;;;2210059;59;2434;-80
2023/12/18 11:04:35;;;;;;;;;;;;;;;;;;2203093;59;1854;-80
2023/12/18 11:07:10;;;;;;;;;;;;;;;;;;2210258;59;2238;-80
2023/12/18 11:09:46;;;;;;;;;;;;;;;;;;2210148;67;1897;-80
2023/12/18 11:12:17;;;;;;;;;;;;;;;;;;2206812;59;1618;-80
2023/12/18 11:14:51;;;;;;;;;;;;;;;;;;2206727;59;2419;-81
2023/12/18 11:17:43;;;;;;;;;;;;;;;;;;2204842;59;2089;-80
2023/12/18 11:20:27;;;;;;;;;;;;;;;;;;2205476;59;2158;-80
2023/12/18 11:23:03;;;;;;;;;;;;;;;;;;2209154;67;2044;-80
2023/12/18 11:25:37;;;;;;;;;;;;;;;;;;2206116;59;2229;-80
2023/12/18 11:28:16;;;;;;;;;;;;;;;;;;2206836;59;1794;-80
2023/12/18 11:30:49;;;;;;;;;;;;;;;;;;2203574;59;2526;-80
2023/12/18 11:33:20;;;;;;;;;;;;;;;;;;2208975;59;2335;-80
2023/12/18 11:35:51;;;;;;;;;;;;;;;;;;2206667;59;1973;-79
2023/12/18 11:38:24;;;;;;;;;;;;;;;;;;2208142;59;1705;-80
2023/12/18 11:40:56;;;;;;;;;;;;;;;;;;2205911;59;1996;-80
2023/12/18 11:43:35;;;;;;;;;;;;;;;;;;2209384;59;1825;-80
2023/12/18 11:46:07;;;;;;;;;;;;;;;;;;2209362;59;1803;-80
2023/12/18 11:48:39;;;;;;;;;;;;;;;;;;2208044;67;2005;-80
2023/12/18 11:51:17;;;;;;;;;;;;;;;;;;2206263;67;1744;-80
2023/12/18 11:53:56;;;;;;;;;;;;;;;;;;2209719;59;1148;-80
2023/12/18 11:56:30;;;;;;;;;;;;;;;;;;2206385;67;1763;-80
2023/12/18 11:59:02;;;;;;;;;;;;;;;;;;2210503;67;1943;-80
2023/12/18 12:01:38;;;;;;;;;;;;;;;;;;2205672;59;1790;-80
2023/12/18 12:04:10;;;;;;;;;;;;;;;;;;2205491;59;1424;-80
2023/12/18 12:06:42;;;;;;;;;;;;;;;;;;2204356;59;2313;-80
2023/12/18 12:09:12;;;;;;;;;;;;;;;;;;2205177;67;1435;-80
2023/12/18 12:11:43;;;;;;;;;;;;;;;;;;2209184;59;2477;-80
2023/12/18 12:14:14;;;;;;;;;;;;;;;;;;2204886;59;3498;-80
2023/12/18 12:16:47;;;;;;;;;;;;;;;;;;2208887;59;1915;-80
2023/12/18 12:19:18;;;;;;;;;;;;;;;;;;2208028;59;1913;-80
2023/12/18 12:21:57;;;;;;;;;;;;;;;;;;2206308;59;2092;-80
2023/12/18 12:24:30;;;;;;;;;;;;;;;;;;2206653;59;2198;-80
2023/12/18 12:27:11;;;;;;;;;;;;;;;;;;2210153;59;2527;-79
2023/12/18 12:29:44;;;;;;;;;;;;;;;;;;2209633;67;2251;-80
2023/12/18 12:32:16;;;;;;;;;;;;;;;;;;2209700;59;2546;-79
2023/12/18 12:34:47;;;;;;;;;;;;;;;;;;2206596;59;2647;-80
2023/12/18 12:37:18;;;;;;;;;;;;;;;;;;2206036;59;2357;-80
2023/12/18 12:40:02;;;;;;;;;;;;;;;;;;2206018;67;2142;-81
2023/12/18 12:42:32;;;;;;;;;;;;;;;;;;2208847;59;2350;-80
2023/12/18 12:45:04;;;;;;;;;;;;;;;;;;2210927;67;2692;-80
2023/12/18 12:47:34;;;;;;;;;;;;;;;;;;2209025;59;2820;-80
2023/12/18 12:50:27;;;;;;;;;;;;;;;;;;2208003;59;2475;-80
2023/12/18 12:53:01;;;;;;;;;;;;;;;;;;2206087;59;2950;-80
2023/12/18 12:55:31;;;;;;;;;;;;;;;;;;2204772;59;2446;-80
2023/12/18 12:58:02;;;;;;;;;;;;;;;;;;2206584;59;2531;-80
2023/12/18 13:00:35;;;;;;;;;;;;;;;;;;2205773;59;2076;-80
2023/12/18 13:03:10;;;;;;;;;;;;;;;;;;2210902;67;2235;-80
2023/12/18 13:05:44;;;;;;;;;;;;;;;;;;2210364;59;2166;-80
2023/12/18 13:08:18;;;;;;;;;;;;;;;;;;2210304;59;1830;-79
2023/12/18 13:10:48;;;;;;;;;;;;;;;;;;2206583;67;2091;-80
2023/12/18 13:13:22;;;;;;;;;;;;;;;;;;2210027;59;2765;-79
2023/12/18 13:15:52;;;;;;;;;;;;;;;;;;2210257;59;2204;-80
2023/12/18 13:18:29;;;;;;;;;;;;;;;;;;2209659;67;2639;-80
2023/12/18 13:21:03;;;;;;;;;;;;;;;;;;2211162;59;2546;-80
2023/12/18 13:23:38;;;;;;;;;;;;;;;;;;2208810;67;2232;-80
2023/12/18 13:26:09;;;;;;;;;;;;;;;;;;2205699;59;2669;-81
2023/12/18 13:28:39;;;;;;;;;;;;;;;;;;2206647;59;2291;-81
2023/12/18 13:31:12;;;;;;;;;;;;;;;;;;2207048;59;2580;-81
2023/12/18 13:33:46;;;;;;;;;;;;;;;;;;2207542;59;2637;-80
2023/12/18 13:36:24;;;;;;;;;;;;;;;;;;2204984;59;2792;-80
2023/12/18 13:38:58;;;;;;;;;;;;;;;;;;2210233;59;2410;-80
2023/12/18 13:41:38;;;;;;;;;;;;;;;;;;2208640;67;2634;-80
2023/12/18 13:44:11;;;;;;;;;;;;;;;;;;2207940;59;2234;-80
2023/12/18 13:46:41;;;;;;;;;;;;;;;;;;2205911;59;2135;-80
2023/12/18 13:49:13;;;;;;;;;;;;;;;;;;2199905;59;1800;-80
2023/12/18 13:51:46;;;;;;;;;;;;;;;;;;2209195;59;2412;-80
2023/12/18 13:54:22;;;;;;;;;;;;;;;;;;2206737;59;2595;-81
2023/12/18 13:56:53;;;;;;;;;;;;;;;;;;2209412;59;2421;-80
2023/12/18 13:59:24;;;;;;;;;;;;;;;;;;2208203;59;2395;-80
2023/12/18 14:01:54;;;;;;;;;;;;;;;;;;2210671;59;3121;-81
2023/12/18 14:04:25;;;;;;;;;;;;;;;;;;2210266;67;2526;-80
2023/12/18 14:07:03;;;;;;;;;;;;;;;;;;2210998;59;2308;-80
2023/12/18 14:09:33;;;;;;;;;;;;;;;;;;2210021;59;2302;-81
2023/12/18 14:12:06;;;;;;;;;;;;;;;;;;2207441;59;2359;-81
2023/12/18 14:14:40;;;;;;;;;;;;;;;;;;2211377;59;3130;-80
2023/12/18 14:17:10;;;;;;;;;;;;;;;;;;2212790;59;2374;-82
2023/12/18 14:19:40;;;;;;;;;;;;;;;;;;2210818;59;4484;-79
2023/12/18 14:22:11;;;;;;;;;;;;;;;;;;2212663;67;2814;-80
2023/12/18 14:24:41;;;;;;;;;;;;;;;;;;2208316;59;1964;-80
2023/12/18 14:27:14;;;;;;;;;;;;;;;;;;2210237;59;2718;-80
2023/12/18 14:29:50;;;;;;;;;;;;;;;;;;2205195;59;2450;-80
2023/12/18 14:32:23;;;;;;;;;;;;;;;;;;2210081;59;2272;-81
2023/12/18 14:34:56;;;;;;;;;;;;;;;;;;2210819;67;2411;-80
2023/12/18 14:37:26;;;;;;;;;;;;;;;;;;2211344;67;2668;-81
2023/12/18 14:40:04;;;;;;;;;;;;;;;;;;2211041;59;2920;-81
2023/12/18 14:42:34;;;;;;;;;;;;;;;;;;2207112;67;2071;-81
2023/12/18 14:45:05;;;;;;;;;;;;;;;;;;2211964;67;2478;-81
2023/12/18 14:47:38;;;;;;;;;;;;;;;;;;2207413;60;2439;-80
2023/12/18 14:50:09;;;;;;;;;;;;;;;;;;2207276;59;1904;-81
2023/12/18 14:52:40;;;;;;;;;;;;;;;;;;2209870;67;2163;-80
2023/12/18 14:55:10;;;;;;;;;;;;;;;;;;2211959;59;1946;-80
2023/12/18 14:57:40;;;;;;;;;;;;;;;;;;2210285;59;2330;-81
2023/12/18 15:00:11;;;;;;;;;;;;;;;;;;2207955;59;2607;-81
2023/12/18 15:02:52;;;;;;;;;;;;;;;;;;2210035;67;2580;-80
2023/12/18 15:05:25;;;;;;;;;;;;;;;;;;2209721;59;1764;-80
2023/12/18 15:07:55;;;;;;;;;;;;;;;;;;2209917;59;2899;-81
2023/12/18 15:10:27;;;;;;;;;;;;;;;;;;2206402;59;2424;-81
2023/12/18 15:12:58;;;;;;;;;;;;;;;;;;2206932;60;2682;-81
2023/12/18 15:15:29;;;;;;;;;;;;;;;;;;2206051;59;2131;-81
2023/12/18 15:18:02;;;;;;;;;;;;;;;;;;2206335;59;2541;-82
2023/12/18 15:20:35;;;;;;;;;;;;;;;;;;2203297;59;2837;-81
2023/12/18 15:23:06;;;;;;;;;;;;;;;;;;2204575;59;2898;-81
2023/12/18 15:25:37;;;;;;;;;;;;;;;;;;2209671;59;2315;-81
2023/12/18 15:28:08;;;;;;;;;;;;;;;;;;2207081;59;2251;-81
2023/12/18 15:30:38;;;;;;;;;;;;;;;;;;2205641;59;2489;-81
2023/12/18 15:33:08;;;;;;;;;;;;;;;;;;2205920;59;3000;-81
2023/12/18 15:35:41;;;;;;;;;;;;;;;;;;2203135;59;2949;-81
2023/12/18 15:38:17;;;;;;;;;;;;;;;;;;2204610;67;2595;-80
2023/12/18 15:40:48;;;;;;;;;;;;;;;;;;2209390;59;2037;-81
2023/12/18 15:43:18;;;;;;;;;;;;;;;;;;2206981;60;2794;-80
2023/12/18 15:45:49;;;;;;;;;;;;;;;;;;2202822;59;2035;-81
2023/12/18 15:48:25;;;;;;;;;;;;;;;;;;2206983;59;2246;-81
2023/12/18 15:50:56;;;;;;;;;;;;;;;;;;2204053;59;2933;-81
2023/12/18 15:53:27;;;;;;;;;;;;;;;;;;2206608;59;2783;-81
2023/12/18 15:56:01;;;;;;;;;;;;;;;;;;2206525;59;4058;-80
2023/12/18 15:58:32;;;;;;;;;;;;;;;;;;2206719;59;2747;-80
2023/12/18 16:01:02;;;;;;;;;;;;;;;;;;2208033;59;2534;-80
2023/12/18 16:03:35;;;;;;;;;;;;;;;;;;2210235;59;2483;-80
2023/12/18 16:06:06;;;;;;;;;;;;;;;;;;2211583;59;2956;-81
2023/12/18 16:08:36;;;;;;;;;;;;;;;;;;2205603;59;1716;-80
2023/12/18 16:11:06;;;;;;;;;;;;;;;;;;2207013;59;2196;-80
2023/12/18 16:13:41;;;;;;;;;;;;;;;;;;2204236;67;2279;-80
2023/12/18 16:16:15;;;;;;;;;;;;;;;;;;2202880;59;3409;-80
2023/12/18 16:18:45;;;;;;;;;;;;;;;;;;2202483;67;3141;-80
2023/12/18 16:21:19;;;;;;;;;;;;;;;;;;2207515;59;3161;-80
2023/12/18 16:23:52;;;;;;;;;;;;;;;;;;2207214;59;2563;-81
2023/12/18 16:26:22;;;;;;;;;;;;;;;;;;2207669;59;1833;-80
2023/12/18 16:28:53;;;;;;;;;;;;;;;;;;2206515;59;1662;-81
2023/12/18 16:31:23;;;;;;;;;;;;;;;;;;2208271;59;1994;-81
2023/12/18 16:33:54;;;;;;;;;;;;;;;;;;2203512;59;2034;-81
2023/12/18 16:36:32;;;;;;;;;;;;;;;;;;2211341;59;2226;-80
2023/12/18 16:39:04;;;;;;;;;;;;;;;;;;2211927;59;1906;-80
2023/12/18 16:41:41;;;;;;;;;;;;;;;;;;2205267;67;1339;-80
2023/12/18 16:44:12;;;;;;;;;;;;;;;;;;2203598;59;2556;-81
2023/12/18 16:46:42;;;;;;;;;;;;;;;;;;2207255;59;1951;-81
2023/12/18 16:49:12;;;;;;;;;;;;;;;;;;2210544;59;1709;-80
2023/12/18 16:51:52;;;;;;;;;;;;;;;;;;2210391;67;1297;-82
2023/12/18 16:54:25;;;;;;;;;;;;;;;;;;2211994;59;1817;-81
2023/12/18 16:57:53;;;;;;;;;;;;;;;;;;2207230;59;2710;-81
2023/12/18 16:59:58;;;;;;;;;;;;;;;;;;2210402;59;1965;-81
2023/12/18 17:02:35;;;;;;;;;;;;;;;;;;2209733;67;1469;-80
2023/12/18 17:05:06;;;;;;;;;;;;;;;;;;2211913;59;1533;-81
2023/12/18 17:07:45;;;;;;;;;;;;;;;;;;2204078;59;2424;-80
2023/12/18 17:10:24;;;;;;;;;;;;;;;;;;2211674;67;1498;-81
2023/12/18 17:12:55;;;;;;;;;;;;;;;;;;2209829;59;1308;-80
2023/12/18 17:15:39;;;;;;;;;;;;;;;;;;2207214;59;2344;-80
2023/12/18 17:18:19;;;;;;;;;;;;;;;;;;2206975;59;3160;-80
2023/12/18 17:20:52;;;;;;;;;;;;;;;;;;2207165;59;2525;-81
2023/12/18 17:23:30;;;;;;;;;;;;;;;;;;2211498;59;2913;-80
2023/12/18 17:26:00;;;;;;;;;;;;;;;;;;2207360;59;1932;-80
2023/12/18 17:28:31;;;;;;;;;;;;;;;;;;2206179;59;2622;-81
2023/12/18 17:31:08;;;;;;;;;;;;;;;;;;2210747;59;2766;-81
2023/12/18 17:33:41;;;;;;;;;;;;;;;;;;2206902;59;2639;-80
2023/12/18 17:36:11;;;;;;;;;;;;;;;;;;2207312;59;1876;-80
2023/12/18 17:38:41;;;;;;;;;;;;;;;;;;2207369;67;2455;-81
2023/12/18 17:41:12;;;;;;;;;;;;;;;;;;2207236;67;2418;-80
2023/12/18 17:43:42;;;;;;;;;;;;;;;;;;2202709;67;2541;-81
2023/12/18 17:46:13;;;;;;;;;;;;;;;;;;2212520;59;2251;-81
2023/12/18 17:48:46;;;;;;;;;;;;;;;;;;2206067;67;2064;-80